Portada
METAR-TAF:

METAR-TAF

Aeroports :

Odiham, Anglaterra

latitud: 51-14N, longitud: 000-57W, altitud: 123 m

Observació

L'informe es va fer fa 43 minuts, a les 06:50 UTC
Vent 20 kt del Sud
Temperatura 13°C
Humitat 88%
Pressió 1011 hPa
Visibilitat 10 km o més

METAR: EGVO 310650Z AUTO 17020KT 9999 FEW025/// BKN044/// 13/11 Q1011

Hora: 07:33 (07:33 UTC)

Pronòstic

L'informe es va fer fa 21 hores i 8 minuts, a les 10:25 UTC
Pronòstic vàlid del 30 a les 12 UTC al 30 a les 24 UTC
Vent 14 kt del Sud-Oest
Visibilitat 10 km o més
Cel ennuvolat a una alçada de 1000 ft
Temporalment
l' 30 a les 12 UTC al 30 a les 24 UTC
Visibilitat: 4000 m
Núvols disperses a una alçada de 600 ft
plugim
Probabilitat 30% :
Temporalment
l' 30 a les 15 UTC al 30 a les 24 UTC
Visibilitat: 3000 m
pluja, plugim

TAF: EGVO 301025Z 3012/3024 22014KT 9999 BKN010 TEMPO 3012/3024 4000 -DZ SCT006 PROB30 TEMPO 3015/3024 3000 RADZ

Observacions i pronòstics meteorològics de més de 4000 aeroports (METAR i TAF).

Les estacions disponibles són els punts grocs i vermells al mapa.

Posi el ratolí al punt desitjat per veure el nom de l'estació.

Feu clic per veure les observacions i els pronòstics meteorològics.

Per canviar el mapa: feu clic els botons verds amb una creu de color negre per apropar; al botó verd amb un guió per allunyar la imatge; o en les fletxes verdes per a mapes adjacents.


METAR-TAF: